Ross, TX (76684)

8:23 PM CST on December 28, 2014 (GMT -0600)
KTXWEST5 | Change Station
CLOSE
Current Station
Personal Weather Station
Location: West, TX
Elevation: 587 ft
Nearby Weather Stations

Elev 587 ft 31.75 °N, 97.12 °W | Updated 1 second ago

Clear
Clear
37.8 °F
Feels Like 38 °F
N
2.0
Wind Variable Wind from ENE
Gusts 3.0 mph

Today
High -- | Low -- °F
--% Chance of Precip.
Yesterday
High -- | Low -- °F
Precip. -- in
7:27 AM 5:33 PM
First Quarter, 54% visible
Pressure 30.17 in
Visibility 10.0 miles
Clouds Clear
Windchill 38 °F
Dew Point 28 °F
Humidity 67%
Rainfall 0.00 in
Snow Depth Not available.
UV 0.0 out of 12
Pollen 9.00 out of 12
Air Quality Not available.
Flu Activity Not available.
METAR KCNW 290053Z 00000KT 10SM SKC 03/M03 A3017

More Conditions Fewer Conditions

Pressure 30.17 in
Visibility 10.0 miles
Clouds Clear
Windchill 38 °F
Dew Point 28 °F
Humidity 67%
Rainfall 0.00 in
Snow Depth Not available.
UV 0.0 out of 12
Pollen 9.00 out of 12
Air Quality Not available.
Flu Activity Not available.
METAR KCNW 290053Z 00000KT 10SM SKC 03/M03 A3017

More Conditions Fewer Conditions

10-Day Weather Forecast

Almanac

Astronomy

Dec. 28, 2014 Rise Set
Actual Time
Civil Twilight
Nautical Twilight
Astronomical Twilight
Moon
Length of Visible Light
Length of Day
Tomorrow will be .
, % of the Moon is Illuminated

Today's Extremes

State Highs State Lows

Community

WunderPhotos

Upload Photos

1,781,500 photos uploaded!

WunderBlogs® & News

Nearby

Air Quality

  Air Quality AQ Index Pollutant
Not available.

Snow Depth

Station Depth Elevation

Earthquake Activity

City Distance Mag. Time & Date
Minimum magnitude displayed is 2.5.

Coastal Water Temperatures

Place Temperature

Nearby Weather Stations